sensor_id;sensor_type;location;lat;lon;timestamp;P1;durP1;ratioP1;P2;durP2;ratioP2
801;SDS011;383;48.766;9.270;2023-06-26T00:01:27;14.80;;;9.53;;
801;SDS011;383;48.766;9.270;2023-06-26T00:03:56;15.80;;;9.57;;
801;SDS011;383;48.766;9.270;2023-06-26T00:06:24;17.93;;;8.67;;
801;SDS011;383;48.766;9.270;2023-06-26T00:08:51;14.27;;;8.37;;
801;SDS011;383;48.766;9.270;2023-06-26T00:11:18;13.07;;;8.70;;
801;SDS011;383;48.766;9.270;2023-06-26T00:13:44;16.10;;;8.60;;
801;SDS011;383;48.766;9.270;2023-06-26T00:16:11;13.20;;;8.50;;
801;SDS011;383;48.766;9.270;2023-06-26T00:18:38;14.80;;;9.70;;
801;SDS011;383;48.766;9.270;2023-06-26T00:21:05;17.07;;;9.50;;
801;SDS011;383;48.766;9.270;2023-06-26T00:23:33;15.07;;;9.40;;
801;SDS011;383;48.766;9.270;2023-06-26T00:26:01;14.90;;;9.13;;
801;SDS011;383;48.766;9.270;2023-06-26T00:28:28;14.40;;;9.10;;
801;SDS011;383;48.766;9.270;2023-06-26T00:30:55;14.90;;;8.70;;
801;SDS011;383;48.766;9.270;2023-06-26T00:33:22;16.20;;;9.53;;
801;SDS011;383;48.766;9.270;2023-06-26T00:35:49;14.53;;;8.17;;
801;SDS011;383;48.766;9.270;2023-06-26T00:38:15;23.90;;;10.03;;
801;SDS011;383;48.766;9.270;2023-06-26T00:40:44;13.57;;;8.50;;
801;SDS011;383;48.766;9.270;2023-06-26T00:43:10;19.97;;;8.70;;
801;SDS011;383;48.766;9.270;2023-06-26T00:45:37;13.00;;;8.07;;
801;SDS011;383;48.766;9.270;2023-06-26T00:48:04;15.63;;;9.30;;
801;SDS011;383;48.766;9.270;2023-06-26T00:50:32;14.47;;;8.40;;
801;SDS011;383;48.766;9.270;2023-06-26T00:52:58;16.50;;;9.50;;
801;SDS011;383;48.766;9.270;2023-06-26T00:55:26;15.20;;;8.63;;
801;SDS011;383;48.766;9.270;2023-06-26T00:57:54;16.10;;;9.33;;
801;SDS011;383;48.766;9.270;2023-06-26T01:00:22;15.93;;;9.17;;
801;SDS011;383;48.766;9.270;2023-06-26T01:02:48;14.67;;;9.60;;
801;SDS011;383;48.766;9.270;2023-06-26T01:05:15;13.33;;;7.60;;
801;SDS011;383;48.766;9.270;2023-06-26T01:07:45;14.00;;;8.47;;
801;SDS011;383;48.766;9.270;2023-06-26T01:10:13;14.93;;;8.97;;
801;SDS011;383;48.766;9.270;2023-06-26T01:12:40;14.27;;;8.70;;
801;SDS011;383;48.766;9.270;2023-06-26T01:15:09;14.23;;;8.37;;
801;SDS011;383;48.766;9.270;2023-06-26T01:17:37;15.50;;;9.63;;
801;SDS011;383;48.766;9.270;2023-06-26T01:20:05;11.90;;;7.50;;
801;SDS011;383;48.766;9.270;2023-06-26T01:22:34;12.83;;;7.97;;
801;SDS011;383;48.766;9.270;2023-06-26T01:25:12;17.07;;;9.00;;
801;SDS011;383;48.766;9.270;2023-06-26T01:27:45;14.83;;;8.50;;
801;SDS011;383;48.766;9.270;2023-06-26T01:30:14;15.40;;;9.30;;
801;SDS011;383;48.766;9.270;2023-06-26T01:32:42;14.83;;;9.00;;
801;SDS011;383;48.766;9.270;2023-06-26T01:35:10;16.23;;;9.60;;
801;SDS011;383;48.766;9.270;2023-06-26T01:37:37;16.17;;;8.80;;
801;SDS011;383;48.766;9.270;2023-06-26T01:40:04;14.30;;;9.17;;
801;SDS011;383;48.766;9.270;2023-06-26T01:42:32;13.63;;;8.90;;
801;SDS011;383;48.766;9.270;2023-06-26T01:45:00;14.63;;;8.60;;
801;SDS011;383;48.766;9.270;2023-06-26T01:47:31;14.07;;;8.87;;
801;SDS011;383;48.766;9.270;2023-06-26T01:50:03;16.23;;;9.23;;
801;SDS011;383;48.766;9.270;2023-06-26T01:52:35;16.47;;;8.80;;
801;SDS011;383;48.766;9.270;2023-06-26T01:55:09;14.47;;;8.90;;
801;SDS011;383;48.766;9.270;2023-06-26T01:57:41;12.07;;;8.20;;
801;SDS011;383;48.766;9.270;2023-06-26T02:00:10;16.23;;;8.83;;
801;SDS011;383;48.766;9.270;2023-06-26T02:02:38;14.20;;;9.07;;
801;SDS011;383;48.766;9.270;2023-06-26T02:05:07;15.03;;;9.67;;
801;SDS011;383;48.766;9.270;2023-06-26T02:07:34;16.30;;;8.27;;
801;SDS011;383;48.766;9.270;2023-06-26T02:10:00;15.07;;;8.40;;
801;SDS011;383;48.766;9.270;2023-06-26T02:12:27;18.10;;;9.50;;
801;SDS011;383;48.766;9.270;2023-06-26T02:14:54;12.30;;;8.37;;
801;SDS011;383;48.766;9.270;2023-06-26T02:17:22;15.20;;;8.60;;
801;SDS011;383;48.766;9.270;2023-06-26T02:19:49;13.47;;;8.30;;
801;SDS011;383;48.766;9.270;2023-06-26T02:22:16;18.60;;;9.70;;
801;SDS011;383;48.766;9.270;2023-06-26T02:24:43;15.23;;;8.83;;
801;SDS011;383;48.766;9.270;2023-06-26T02:27:10;16.27;;;8.93;;
801;SDS011;383;48.766;9.270;2023-06-26T02:29:37;15.03;;;8.43;;
801;SDS011;383;48.766;9.270;2023-06-26T02:32:06;17.47;;;9.13;;
801;SDS011;383;48.766;9.270;2023-06-26T02:34:34;14.47;;;8.83;;
801;SDS011;383;48.766;9.270;2023-06-26T02:37:01;16.00;;;9.40;;
801;SDS011;383;48.766;9.270;2023-06-26T02:39:28;14.03;;;8.73;;
801;SDS011;383;48.766;9.270;2023-06-26T02:41:54;13.70;;;8.50;;
801;SDS011;383;48.766;9.270;2023-06-26T02:44:21;14.40;;;8.67;;
801;SDS011;383;48.766;9.270;2023-06-26T02:46:48;13.70;;;8.60;;
801;SDS011;383;48.766;9.270;2023-06-26T02:49:14;17.67;;;10.03;;
801;SDS011;383;48.766;9.270;2023-06-26T02:51:42;13.13;;;7.97;;
801;SDS011;383;48.766;9.270;2023-06-26T02:54:09;16.60;;;8.60;;
801;SDS011;383;48.766;9.270;2023-06-26T02:56:36;13.33;;;8.80;;
801;SDS011;383;48.766;9.270;2023-06-26T02:59:02;20.17;;;8.70;;
801;SDS011;383;48.766;9.270;2023-06-26T03:01:29;11.83;;;7.80;;
801;SDS011;383;48.766;9.270;2023-06-26T03:03:56;14.27;;;8.90;;
801;SDS011;383;48.766;9.270;2023-06-26T03:06:22;14.23;;;9.20;;
801;SDS011;383;48.766;9.270;2023-06-26T03:08:50;13.20;;;8.63;;
801;SDS011;383;48.766;9.270;2023-06-26T03:11:17;14.23;;;8.40;;
801;SDS011;383;48.766;9.270;2023-06-26T03:13:44;15.90;;;9.53;;
801;SDS011;383;48.766;9.270;2023-06-26T03:16:10;14.87;;;9.40;;
801;SDS011;383;48.766;9.270;2023-06-26T03:18:37;16.73;;;8.30;;
801;SDS011;383;48.766;9.270;2023-06-26T03:21:04;17.13;;;9.17;;
801;SDS011;383;48.766;9.270;2023-06-26T03:23:31;19.37;;;8.87;;
801;SDS011;383;48.766;9.270;2023-06-26T03:25:59;13.03;;;7.93;;
801;SDS011;383;48.766;9.270;2023-06-26T03:28:25;13.30;;;8.10;;
801;SDS011;383;48.766;9.270;2023-06-26T03:30:52;15.70;;;8.60;;
801;SDS011;383;48.766;9.270;2023-06-26T03:33:19;12.53;;;7.80;;
801;SDS011;383;48.766;9.270;2023-06-26T03:35:46;16.20;;;8.87;;
801;SDS011;383;48.766;9.270;2023-06-26T03:38:12;14.67;;;8.70;;
801;SDS011;383;48.766;9.270;2023-06-26T03:40:39;20.97;;;8.30;;
801;SDS011;383;48.766;9.270;2023-06-26T03:43:07;15.90;;;8.63;;
801;SDS011;383;48.766;9.270;2023-06-26T03:45:34;12.60;;;7.80;;
801;SDS011;383;48.766;9.270;2023-06-26T03:48:00;14.43;;;8.17;;
801;SDS011;383;48.766;9.270;2023-06-26T03:50:27;16.40;;;8.17;;
801;SDS011;383;48.766;9.270;2023-06-26T03:52:54;16.23;;;8.60;;
801;SDS011;383;48.766;9.270;2023-06-26T03:55:20;14.97;;;9.37;;
801;SDS011;383;48.766;9.270;2023-06-26T03:57:49;15.97;;;8.60;;
801;SDS011;383;48.766;9.270;2023-06-26T04:00:17;12.67;;;8.53;;
801;SDS011;383;48.766;9.270;2023-06-26T04:02:44;14.00;;;9.03;;
801;SDS011;383;48.766;9.270;2023-06-26T04:05:11;15.37;;;9.30;;
801;SDS011;383;48.766;9.270;2023-06-26T04:07:37;14.20;;;8.00;;
801;SDS011;383;48.766;9.270;2023-06-26T04:10:05;15.73;;;9.27;;
801;SDS011;383;48.766;9.270;2023-06-26T04:12:32;14.20;;;9.10;;
801;SDS011;383;48.766;9.270;2023-06-26T04:14:59;12.87;;;7.90;;
801;SDS011;383;48.766;9.270;2023-06-26T04:17:27;13.03;;;7.83;;
801;SDS011;383;48.766;9.270;2023-06-26T04:19:53;16.20;;;9.00;;
801;SDS011;383;48.766;9.270;2023-06-26T04:22:20;14.40;;;8.23;;
801;SDS011;383;48.766;9.270;2023-06-26T04:24:47;19.27;;;9.70;;
801;SDS011;383;48.766;9.270;2023-06-26T04:27:14;13.27;;;8.00;;
801;SDS011;383;48.766;9.270;2023-06-26T04:29:41;23.77;;;9.70;;
801;SDS011;383;48.766;9.270;2023-06-26T04:32:08;17.43;;;9.00;;
801;SDS011;383;48.766;9.270;2023-06-26T04:34:36;20.60;;;8.87;;
801;SDS011;383;48.766;9.270;2023-06-26T04:37:06;15.13;;;8.90;;
801;SDS011;383;48.766;9.270;2023-06-26T04:39:34;18.90;;;9.77;;
801;SDS011;383;48.766;9.270;2023-06-26T04:42:01;16.50;;;9.20;;
801;SDS011;383;48.766;9.270;2023-06-26T04:44:28;16.33;;;8.73;;
801;SDS011;383;48.766;9.270;2023-06-26T04:46:55;16.37;;;9.50;;
801;SDS011;383;48.766;9.270;2023-06-26T04:49:22;15.87;;;8.93;;
801;SDS011;383;48.766;9.270;2023-06-26T04:51:49;14.93;;;9.10;;
801;SDS011;383;48.766;9.270;2023-06-26T04:54:16;23.67;;;12.90;;
801;SDS011;383;48.766;9.270;2023-06-26T04:56:43;18.93;;;10.60;;
801;SDS011;383;48.766;9.270;2023-06-26T04:59:12;18.73;;;10.37;;
801;SDS011;383;48.766;9.270;2023-06-26T05:01:39;17.90;;;9.70;;
801;SDS011;383;48.766;9.270;2023-06-26T05:04:06;16.37;;;9.33;;
801;SDS011;383;48.766;9.270;2023-06-26T05:06:33;17.73;;;8.73;;
801;SDS011;383;48.766;9.270;2023-06-26T05:09:01;14.87;;;9.10;;
801;SDS011;383;48.766;9.270;2023-06-26T05:11:28;17.63;;;9.47;;
801;SDS011;383;48.766;9.270;2023-06-26T05:13:55;15.30;;;8.50;;
801;SDS011;383;48.766;9.270;2023-06-26T05:16:21;14.40;;;9.03;;
801;SDS011;383;48.766;9.270;2023-06-26T05:18:48;16.20;;;9.53;;
801;SDS011;383;48.766;9.270;2023-06-26T05:21:15;14.33;;;9.03;;
801;SDS011;383;48.766;9.270;2023-06-26T05:23:42;17.20;;;10.60;;
801;SDS011;383;48.766;9.270;2023-06-26T05:26:11;14.67;;;8.43;;
801;SDS011;383;48.766;9.270;2023-06-26T05:28:39;17.47;;;9.53;;
801;SDS011;383;48.766;9.270;2023-06-26T05:31:06;14.07;;;8.30;;
801;SDS011;383;48.766;9.270;2023-06-26T05:33:34;17.20;;;9.20;;
801;SDS011;383;48.766;9.270;2023-06-26T05:36:02;13.80;;;10.10;;
801;SDS011;383;48.766;9.270;2023-06-26T05:38:31;12.10;;;7.97;;
801;SDS011;383;48.766;9.270;2023-06-26T05:40:58;15.00;;;8.60;;
801;SDS011;383;48.766;9.270;2023-06-26T05:43:26;16.07;;;8.80;;
801;SDS011;383;48.766;9.270;2023-06-26T05:45:53;16.80;;;8.67;;
801;SDS011;383;48.766;9.270;2023-06-26T05:48:20;18.07;;;9.50;;
801;SDS011;383;48.766;9.270;2023-06-26T05:50:47;14.70;;;8.57;;
801;SDS011;383;48.766;9.270;2023-06-26T05:53:14;13.97;;;8.30;;
801;SDS011;383;48.766;9.270;2023-06-26T05:55:41;14.60;;;8.87;;
801;SDS011;383;48.766;9.270;2023-06-26T05:58:09;13.47;;;8.53;;
801;SDS011;383;48.766;9.270;2023-06-26T06:00:39;13.57;;;9.17;;
801;SDS011;383;48.766;9.270;2023-06-26T06:03:06;16.67;;;9.17;;
801;SDS011;383;48.766;9.270;2023-06-26T06:05:34;15.60;;;8.97;;
801;SDS011;383;48.766;9.270;2023-06-26T06:08:00;12.57;;;8.00;;
801;SDS011;383;48.766;9.270;2023-06-26T06:10:27;16.43;;;8.63;;
801;SDS011;383;48.766;9.270;2023-06-26T06:12:54;11.77;;;8.20;;
801;SDS011;383;48.766;9.270;2023-06-26T06:15:20;11.80;;;7.90;;
801;SDS011;383;48.766;9.270;2023-06-26T06:17:48;13.93;;;8.53;;
801;SDS011;383;48.766;9.270;2023-06-26T06:20:16;14.97;;;9.40;;
801;SDS011;383;48.766;9.270;2023-06-26T06:22:44;12.30;;;8.33;;
801;SDS011;383;48.766;9.270;2023-06-26T06:25:11;17.80;;;9.17;;
801;SDS011;383;48.766;9.270;2023-06-26T06:27:38;16.53;;;9.50;;
801;SDS011;383;48.766;9.270;2023-06-26T06:30:05;16.27;;;8.40;;
801;SDS011;383;48.766;9.270;2023-06-26T06:32:33;12.33;;;7.60;;
801;SDS011;383;48.766;9.270;2023-06-26T06:35:01;13.30;;;9.33;;
801;SDS011;383;48.766;9.270;2023-06-26T06:37:34;17.03;;;9.40;;
801;SDS011;383;48.766;9.270;2023-06-26T06:40:01;14.30;;;7.80;;
801;SDS011;383;48.766;9.270;2023-06-26T06:42:29;14.47;;;8.70;;
801;SDS011;383;48.766;9.270;2023-06-26T06:44:56;15.07;;;9.70;;
801;SDS011;383;48.766;9.270;2023-06-26T06:47:22;16.07;;;9.00;;
801;SDS011;383;48.766;9.270;2023-06-26T06:49:49;13.60;;;8.07;;
801;SDS011;383;48.766;9.270;2023-06-26T06:52:17;16.03;;;9.00;;
801;SDS011;383;48.766;9.270;2023-06-26T06:54:51;13.93;;;8.63;;
801;SDS011;383;48.766;9.270;2023-06-26T06:57:19;13.63;;;8.10;;
801;SDS011;383;48.766;9.270;2023-06-26T06:59:49;12.47;;;8.03;;
801;SDS011;383;48.766;9.270;2023-06-26T07:02:17;12.00;;;8.40;;
801;SDS011;383;48.766;9.270;2023-06-26T07:04:43;11.03;;;7.50;;
801;SDS011;383;48.766;9.270;2023-06-26T07:07:11;16.67;;;8.30;;
801;SDS011;383;48.766;9.270;2023-06-26T07:09:40;10.90;;;7.73;;
801;SDS011;383;48.766;9.270;2023-06-26T07:12:07;21.60;;;7.50;;
801;SDS011;383;48.766;9.270;2023-06-26T07:14:34;14.07;;;8.87;;
801;SDS011;383;48.766;9.270;2023-06-26T07:17:01;18.10;;;7.53;;
801;SDS011;383;48.766;9.270;2023-06-26T07:19:27;13.27;;;7.90;;
801;SDS011;383;48.766;9.270;2023-06-26T07:21:54;12.47;;;7.57;;
801;SDS011;383;48.766;9.270;2023-06-26T07:24:21;13.30;;;8.30;;
801;SDS011;383;48.766;9.270;2023-06-26T07:26:49;13.40;;;8.70;;
801;SDS011;383;48.766;9.270;2023-06-26T07:29:16;10.77;;;8.00;;
801;SDS011;383;48.766;9.270;2023-06-26T07:31:44;13.37;;;8.30;;
801;SDS011;383;48.766;9.270;2023-06-26T07:34:11;16.20;;;8.53;;
801;SDS011;383;48.766;9.270;2023-06-26T07:36:37;15.77;;;8.30;;
801;SDS011;383;48.766;9.270;2023-06-26T07:39:04;15.43;;;7.70;;
801;SDS011;383;48.766;9.270;2023-06-26T07:41:31;13.93;;;8.27;;
801;SDS011;383;48.766;9.270;2023-06-26T07:43:59;10.10;;;7.60;;
801;SDS011;383;48.766;9.270;2023-06-26T07:46:25;29.73;;;11.20;;
801;SDS011;383;48.766;9.270;2023-06-26T07:48:52;38.23;;;14.50;;
801;SDS011;383;48.766;9.270;2023-06-26T07:51:19;26.07;;;10.23;;
801;SDS011;383;48.766;9.270;2023-06-26T07:53:46;15.00;;;8.80;;
801;SDS011;383;48.766;9.270;2023-06-26T07:56:13;50.40;;;15.90;;
801;SDS011;383;48.766;9.270;2023-06-26T07:58:39;23.50;;;10.43;;
801;SDS011;383;48.766;9.270;2023-06-26T08:01:07;12.90;;;8.30;;
801;SDS011;383;48.766;9.270;2023-06-26T08:03:34;14.83;;;8.23;;
801;SDS011;383;48.766;9.270;2023-06-26T08:06:01;13.93;;;8.33;;
801;SDS011;383;48.766;9.270;2023-06-26T08:08:29;14.37;;;8.40;;
801;SDS011;383;48.766;9.270;2023-06-26T08:10:56;18.00;;;7.10;;
801;SDS011;383;48.766;9.270;2023-06-26T08:13:23;12.13;;;8.00;;
801;SDS011;383;48.766;9.270;2023-06-26T08:15:50;12.97;;;8.00;;
801;SDS011;383;48.766;9.270;2023-06-26T08:18:18;10.53;;;7.20;;
801;SDS011;383;48.766;9.270;2023-06-26T08:20:45;13.73;;;8.30;;
801;SDS011;383;48.766;9.270;2023-06-26T08:23:12;9.23;;;6.70;;
801;SDS011;383;48.766;9.270;2023-06-26T08:25:38;14.90;;;7.27;;
801;SDS011;383;48.766;9.270;2023-06-26T08:28:05;12.97;;;7.27;;
801;SDS011;383;48.766;9.270;2023-06-26T08:30:32;16.17;;;7.80;;
801;SDS011;383;48.766;9.270;2023-06-26T08:32:59;12.40;;;7.50;;
801;SDS011;383;48.766;9.270;2023-06-26T08:35:28;17.43;;;8.67;;
801;SDS011;383;48.766;9.270;2023-06-26T08:37:54;17.73;;;7.30;;
801;SDS011;383;48.766;9.270;2023-06-26T08:40:21;10.77;;;6.10;;
801;SDS011;383;48.766;9.270;2023-06-26T08:42:48;18.73;;;8.80;;
801;SDS011;383;48.766;9.270;2023-06-26T08:45:18;11.63;;;7.73;;
801;SDS011;383;48.766;9.270;2023-06-26T08:47:45;8.67;;;6.53;;
801;SDS011;383;48.766;9.270;2023-06-26T08:50:14;11.70;;;6.83;;
801;SDS011;383;48.766;9.270;2023-06-26T08:52:45;13.03;;;7.10;;
801;SDS011;383;48.766;9.270;2023-06-26T08:55:19;16.70;;;7.03;;
801;SDS011;383;48.766;9.270;2023-06-26T08:57:50;11.63;;;7.47;;
801;SDS011;383;48.766;9.270;2023-06-26T09:00:17;12.23;;;7.33;;
801;SDS011;383;48.766;9.270;2023-06-26T09:02:44;11.83;;;7.57;;
801;SDS011;383;48.766;9.270;2023-06-26T09:05:11;9.10;;;7.20;;
801;SDS011;383;48.766;9.270;2023-06-26T09:07:38;14.40;;;7.13;;
801;SDS011;383;48.766;9.270;2023-06-26T09:10:07;15.37;;;7.00;;
801;SDS011;383;48.766;9.270;2023-06-26T09:12:34;10.43;;;7.40;;
801;SDS011;383;48.766;9.270;2023-06-26T09:15:02;8.30;;;6.30;;
801;SDS011;383;48.766;9.270;2023-06-26T09:17:33;12.63;;;8.10;;
801;SDS011;383;48.766;9.270;2023-06-26T09:20:05;8.80;;;6.60;;
801;SDS011;383;48.766;9.270;2023-06-26T09:22:36;10.97;;;7.30;;
801;SDS011;383;48.766;9.270;2023-06-26T09:25:04;11.83;;;6.70;;
801;SDS011;383;48.766;9.270;2023-06-26T09:27:33;11.23;;;6.87;;
801;SDS011;383;48.766;9.270;2023-06-26T09:30:01;11.10;;;7.60;;
801;SDS011;383;48.766;9.270;2023-06-26T09:32:28;10.03;;;6.57;;
801;SDS011;383;48.766;9.270;2023-06-26T09:34:55;11.63;;;6.67;;
801;SDS011;383;48.766;9.270;2023-06-26T09:37:22;11.90;;;7.40;;
801;SDS011;383;48.766;9.270;2023-06-26T09:39:50;8.83;;;6.10;;
801;SDS011;383;48.766;9.270;2023-06-26T09:42:17;8.60;;;5.97;;
801;SDS011;383;48.766;9.270;2023-06-26T09:44:46;9.97;;;7.00;;
801;SDS011;383;48.766;9.270;2023-06-26T09:47:15;9.20;;;6.63;;
801;SDS011;383;48.766;9.270;2023-06-26T09:49:43;7.50;;;6.17;;
801;SDS011;383;48.766;9.270;2023-06-26T09:52:10;13.10;;;6.40;;
801;SDS011;383;48.766;9.270;2023-06-26T09:54:42;10.70;;;7.00;;
801;SDS011;383;48.766;9.270;2023-06-26T09:57:10;11.10;;;6.33;;
801;SDS011;383;48.766;9.270;2023-06-26T09:59:38;12.37;;;6.30;;
801;SDS011;383;48.766;9.270;2023-06-26T10:02:07;6.83;;;5.60;;
801;SDS011;383;48.766;9.270;2023-06-26T10:04:35;8.70;;;6.50;;
801;SDS011;383;48.766;9.270;2023-06-26T10:07:04;10.30;;;6.40;;
801;SDS011;383;48.766;9.270;2023-06-26T10:09:32;8.47;;;5.83;;
801;SDS011;383;48.766;9.270;2023-06-26T10:12:02;7.93;;;6.20;;
801;SDS011;383;48.766;9.270;2023-06-26T10:14:33;7.37;;;5.57;;
801;SDS011;383;48.766;9.270;2023-06-26T10:17:03;9.37;;;5.80;;
801;SDS011;383;48.766;9.270;2023-06-26T10:19:33;13.70;;;6.63;;
801;SDS011;383;48.766;9.270;2023-06-26T10:22:02;8.63;;;6.97;;
801;SDS011;383;48.766;9.270;2023-06-26T10:24:31;11.13;;;6.70;;
801;SDS011;383;48.766;9.270;2023-06-26T10:27:02;10.10;;;6.37;;
801;SDS011;383;48.766;9.270;2023-06-26T10:29:31;10.97;;;7.07;;
801;SDS011;383;48.766;9.270;2023-06-26T10:32:00;12.60;;;6.83;;
801;SDS011;383;48.766;9.270;2023-06-26T10:34:30;13.10;;;7.60;;
801;SDS011;383;48.766;9.270;2023-06-26T10:39:39;11.87;;;7.53;;
801;SDS011;383;48.766;9.270;2023-06-26T10:42:14;9.60;;;6.17;;
801;SDS011;383;48.766;9.270;2023-06-26T10:44:41;9.07;;;6.60;;
801;SDS011;383;48.766;9.270;2023-06-26T10:47:09;10.67;;;7.20;;
801;SDS011;383;48.766;9.270;2023-06-26T10:49:37;11.87;;;7.50;;
801;SDS011;383;48.766;9.270;2023-06-26T10:52:06;13.60;;;7.60;;
801;SDS011;383;48.766;9.270;2023-06-26T10:54:33;17.57;;;8.87;;
801;SDS011;383;48.766;9.270;2023-06-26T10:57:01;18.30;;;7.93;;
801;SDS011;383;48.766;9.270;2023-06-26T10:59:31;13.87;;;8.97;;
801;SDS011;383;48.766;9.270;2023-06-26T11:01:58;11.43;;;7.20;;
801;SDS011;383;48.766;9.270;2023-06-26T11:04:35;14.80;;;8.00;;
801;SDS011;383;48.766;9.270;2023-06-26T11:07:18;11.93;;;8.50;;
801;SDS011;383;48.766;9.270;2023-06-26T11:09:59;12.93;;;7.50;;
801;SDS011;383;48.766;9.270;2023-06-26T11:12:36;15.27;;;7.90;;
801;SDS011;383;48.766;9.270;2023-06-26T11:15:07;32.83;;;8.20;;
801;SDS011;383;48.766;9.270;2023-06-26T11:17:34;11.47;;;7.73;;
801;SDS011;383;48.766;9.270;2023-06-26T11:20:02;13.23;;;8.33;;
801;SDS011;383;48.766;9.270;2023-06-26T11:22:32;19.93;;;8.97;;
801;SDS011;383;48.766;9.270;2023-06-26T11:25:02;12.67;;;7.43;;
801;SDS011;383;48.766;9.270;2023-06-26T11:27:31;16.57;;;7.70;;
801;SDS011;383;48.766;9.270;2023-06-26T11:29:58;15.17;;;8.67;;
801;SDS011;383;48.766;9.270;2023-06-26T11:32:26;12.50;;;8.07;;
801;SDS011;383;48.766;9.270;2023-06-26T11:34:53;17.30;;;7.50;;
801;SDS011;383;48.766;9.270;2023-06-26T11:37:20;10.73;;;7.80;;
801;SDS011;383;48.766;9.270;2023-06-26T11:39:49;10.20;;;7.40;;
801;SDS011;383;48.766;9.270;2023-06-26T11:42:16;15.00;;;7.83;;
801;SDS011;383;48.766;9.270;2023-06-26T11:44:46;13.43;;;8.17;;
801;SDS011;383;48.766;9.270;2023-06-26T11:47:14;15.97;;;8.20;;
801;SDS011;383;48.766;9.270;2023-06-26T11:49:42;14.07;;;8.53;;
801;SDS011;383;48.766;9.270;2023-06-26T11:52:09;17.53;;;8.03;;
801;SDS011;383;48.766;9.270;2023-06-26T11:54:36;11.03;;;7.73;;
801;SDS011;383;48.766;9.270;2023-06-26T11:57:05;10.67;;;7.60;;
801;SDS011;383;48.766;9.270;2023-06-26T11:59:35;17.60;;;8.97;;
801;SDS011;383;48.766;9.270;2023-06-26T12:02:06;9.60;;;7.80;;
801;SDS011;383;48.766;9.270;2023-06-26T12:04:35;12.20;;;7.37;;
801;SDS011;383;48.766;9.270;2023-06-26T12:07:04;19.63;;;8.13;;
801;SDS011;383;48.766;9.270;2023-06-26T12:09:34;11.43;;;8.33;;
801;SDS011;383;48.766;9.270;2023-06-26T12:12:05;10.47;;;7.70;;
801;SDS011;383;48.766;9.270;2023-06-26T12:14:34;11.73;;;7.30;;
801;SDS011;383;48.766;9.270;2023-06-26T12:17:04;15.13;;;8.20;;
801;SDS011;383;48.766;9.270;2023-06-26T12:19:33;11.53;;;6.87;;
801;SDS011;383;48.766;9.270;2023-06-26T12:22:05;12.83;;;7.50;;
801;SDS011;383;48.766;9.270;2023-06-26T12:24:33;12.47;;;7.40;;
801;SDS011;383;48.766;9.270;2023-06-26T12:27:02;13.90;;;8.13;;
801;SDS011;383;48.766;9.270;2023-06-26T12:29:35;32.43;;;8.00;;
801;SDS011;383;48.766;9.270;2023-06-26T12:32:08;21.10;;;7.73;;
801;SDS011;383;48.766;9.270;2023-06-26T12:34:36;11.20;;;7.87;;
801;SDS011;383;48.766;9.270;2023-06-26T12:37:04;9.57;;;7.50;;
801;SDS011;383;48.766;9.270;2023-06-26T12:39:44;11.50;;;7.50;;
801;SDS011;383;48.766;9.270;2023-06-26T12:42:13;19.83;;;8.57;;
801;SDS011;383;48.766;9.270;2023-06-26T12:44:43;16.47;;;7.90;;
801;SDS011;383;48.766;9.270;2023-06-26T12:47:10;13.87;;;7.30;;
801;SDS011;383;48.766;9.270;2023-06-26T12:49:39;15.93;;;7.57;;
801;SDS011;383;48.766;9.270;2023-06-26T12:52:08;15.33;;;8.10;;
801;SDS011;383;48.766;9.270;2023-06-26T12:54:41;9.37;;;7.60;;
801;SDS011;383;48.766;9.270;2023-06-26T12:57:17;13.03;;;6.90;;
801;SDS011;383;48.766;9.270;2023-06-26T12:59:45;11.57;;;7.00;;
801;SDS011;383;48.766;9.270;2023-06-26T13:02:12;9.70;;;7.17;;
801;SDS011;383;48.766;9.270;2023-06-26T13:04:38;17.83;;;8.27;;
801;SDS011;383;48.766;9.270;2023-06-26T13:07:05;16.10;;;7.40;;
801;SDS011;383;48.766;9.270;2023-06-26T13:09:33;15.10;;;7.50;;
801;SDS011;383;48.766;9.270;2023-06-26T13:12:00;10.90;;;7.93;;
801;SDS011;383;48.766;9.270;2023-06-26T13:14:28;12.53;;;6.93;;
801;SDS011;383;48.766;9.270;2023-06-26T13:16:56;12.13;;;8.30;;
801;SDS011;383;48.766;9.270;2023-06-26T13:19:23;15.07;;;7.67;;
801;SDS011;383;48.766;9.270;2023-06-26T13:21:50;15.50;;;8.00;;
801;SDS011;383;48.766;9.270;2023-06-26T13:24:16;15.63;;;8.07;;
801;SDS011;383;48.766;9.270;2023-06-26T13:26:43;16.33;;;7.40;;
801;SDS011;383;48.766;9.270;2023-06-26T13:29:10;18.70;;;8.80;;
801;SDS011;383;48.766;9.270;2023-06-26T13:31:36;13.17;;;7.20;;
801;SDS011;383;48.766;9.270;2023-06-26T13:34:05;11.80;;;7.67;;
801;SDS011;383;48.766;9.270;2023-06-26T13:36:31;12.17;;;8.10;;
801;SDS011;383;48.766;9.270;2023-06-26T13:38:59;14.73;;;7.43;;
801;SDS011;383;48.766;9.270;2023-06-26T13:41:27;11.33;;;7.00;;
801;SDS011;383;48.766;9.270;2023-06-26T13:43:55;10.30;;;7.17;;
801;SDS011;383;48.766;9.270;2023-06-26T13:46:21;9.37;;;6.53;;
801;SDS011;383;48.766;9.270;2023-06-26T13:48:48;10.77;;;6.60;;
801;SDS011;383;48.766;9.270;2023-06-26T13:51:16;15.80;;;7.07;;
801;SDS011;383;48.766;9.270;2023-06-26T13:53:43;7.10;;;5.50;;
801;SDS011;383;48.766;9.270;2023-06-26T13:56:09;9.50;;;5.97;;
801;SDS011;383;48.766;9.270;2023-06-26T13:58:36;18.03;;;6.43;;
801;SDS011;383;48.766;9.270;2023-06-26T14:01:03;8.13;;;6.10;;
801;SDS011;383;48.766;9.270;2023-06-26T14:03:30;13.13;;;5.93;;
801;SDS011;383;48.766;9.270;2023-06-26T14:05:57;12.10;;;6.70;;
801;SDS011;383;48.766;9.270;2023-06-26T14:08:25;18.23;;;6.67;;
801;SDS011;383;48.766;9.270;2023-06-26T14:10:52;9.57;;;5.30;;
801;SDS011;383;48.766;9.270;2023-06-26T14:13:19;8.20;;;5.57;;
801;SDS011;383;48.766;9.270;2023-06-26T14:15:48;10.80;;;6.50;;
801;SDS011;383;48.766;9.270;2023-06-26T14:18:17;6.10;;;5.07;;
801;SDS011;383;48.766;9.270;2023-06-26T14:20:44;8.00;;;6.00;;
801;SDS011;383;48.766;9.270;2023-06-26T14:23:11;8.60;;;5.53;;
801;SDS011;383;48.766;9.270;2023-06-26T14:25:39;7.40;;;5.63;;
801;SDS011;383;48.766;9.270;2023-06-26T14:28:05;9.97;;;5.20;;
801;SDS011;383;48.766;9.270;2023-06-26T14:30:32;8.30;;;5.30;;
801;SDS011;383;48.766;9.270;2023-06-26T14:32:59;7.50;;;5.30;;
801;SDS011;383;48.766;9.270;2023-06-26T14:35:25;7.90;;;5.10;;
801;SDS011;383;48.766;9.270;2023-06-26T14:37:52;7.23;;;4.43;;
801;SDS011;383;48.766;9.270;2023-06-26T14:40:19;10.27;;;5.50;;
801;SDS011;383;48.766;9.270;2023-06-26T14:42:47;6.77;;;4.83;;
801;SDS011;383;48.766;9.270;2023-06-26T14:45:13;23.73;;;4.83;;
801;SDS011;383;48.766;9.270;2023-06-26T14:47:40;6.67;;;4.70;;
801;SDS011;383;48.766;9.270;2023-06-26T14:50:07;8.07;;;4.73;;
801;SDS011;383;48.766;9.270;2023-06-26T14:52:35;8.60;;;4.20;;
801;SDS011;383;48.766;9.270;2023-06-26T14:55:01;7.40;;;4.57;;
801;SDS011;383;48.766;9.270;2023-06-26T14:57:28;12.43;;;4.30;;
801;SDS011;383;48.766;9.270;2023-06-26T14:59:56;9.03;;;4.20;;
801;SDS011;383;48.766;9.270;2023-06-26T15:02:23;9.17;;;4.63;;
801;SDS011;383;48.766;9.270;2023-06-26T15:04:50;14.90;;;4.47;;
801;SDS011;383;48.766;9.270;2023-06-26T15:07:17;10.17;;;4.80;;
801;SDS011;383;48.766;9.270;2023-06-26T15:09:46;6.97;;;3.87;;
801;SDS011;383;48.766;9.270;2023-06-26T15:12:13;9.40;;;4.37;;
801;SDS011;383;48.766;9.270;2023-06-26T15:14:39;11.50;;;4.40;;
801;SDS011;383;48.766;9.270;2023-06-26T15:17:09;10.93;;;4.60;;
801;SDS011;383;48.766;9.270;2023-06-26T15:19:36;8.70;;;4.70;;
801;SDS011;383;48.766;9.270;2023-06-26T15:22:04;12.00;;;4.43;;
801;SDS011;383;48.766;9.270;2023-06-26T15:24:31;8.50;;;4.17;;
801;SDS011;383;48.766;9.270;2023-06-26T15:26:57;7.70;;;4.00;;
801;SDS011;383;48.766;9.270;2023-06-26T15:29:24;12.40;;;5.50;;
801;SDS011;383;48.766;9.270;2023-06-26T15:31:51;8.70;;;4.87;;
801;SDS011;383;48.766;9.270;2023-06-26T15:34:20;12.07;;;5.17;;
801;SDS011;383;48.766;9.270;2023-06-26T15:36:46;8.13;;;4.30;;
801;SDS011;383;48.766;9.270;2023-06-26T15:39:14;10.27;;;5.07;;